sensor_id;sensor_type;location;lat;lon;timestamp;temperature;humidity
9125;DHT22;4597;48.730;9.114;2023-05-19T00:01:11;11.70;98.50
9125;DHT22;4597;48.730;9.114;2023-05-19T00:03:39;11.70;98.80
9125;DHT22;4597;48.730;9.114;2023-05-19T00:06:06;11.60;99.90
9125;DHT22;4597;48.730;9.114;2023-05-19T00:08:37;11.60;99.90
9125;DHT22;4597;48.730;9.114;2023-05-19T00:11:03;11.50;99.90
9125;DHT22;4597;48.730;9.114;2023-05-19T00:13:29;11.50;99.90
9125;DHT22;4597;48.730;9.114;2023-05-19T00:15:55;11.40;99.90
9125;DHT22;4597;48.730;9.114;2023-05-19T00:18:21;11.40;99.90
9125;DHT22;4597;48.730;9.114;2023-05-19T00:20:47;11.30;99.90
9125;DHT22;4597;48.730;9.114;2023-05-19T00:23:13;11.30;99.90
9125;DHT22;4597;48.730;9.114;2023-05-19T00:25:38;11.20;99.90
9125;DHT22;4597;48.730;9.114;2023-05-19T00:28:04;11.20;99.90
9125;DHT22;4597;48.730;9.114;2023-05-19T00:30:29;11.20;99.90
9125;DHT22;4597;48.730;9.114;2023-05-19T00:32:55;11.20;99.90
9125;DHT22;4597;48.730;9.114;2023-05-19T00:35:22;11.10;99.90
9125;DHT22;4597;48.730;9.114;2023-05-19T00:37:48;11.10;99.90
9125;DHT22;4597;48.730;9.114;2023-05-19T00:40:13;11.00;99.90
9125;DHT22;4597;48.730;9.114;2023-05-19T00:42:40;11.00;99.90
9125;DHT22;4597;48.730;9.114;2023-05-19T00:45:06;10.90;99.90
9125;DHT22;4597;48.730;9.114;2023-05-19T00:47:32;10.90;99.90
9125;DHT22;4597;48.730;9.114;2023-05-19T00:49:58;10.80;99.90
9125;DHT22;4597;48.730;9.114;2023-05-19T00:52:23;10.80;99.90
9125;DHT22;4597;48.730;9.114;2023-05-19T00:54:50;10.70;99.90
9125;DHT22;4597;48.730;9.114;2023-05-19T00:57:16;10.70;99.90
9125;DHT22;4597;48.730;9.114;2023-05-19T00:59:41;10.60;99.90
9125;DHT22;4597;48.730;9.114;2023-05-19T01:02:07;10.50;99.90
9125;DHT22;4597;48.730;9.114;2023-05-19T01:04:35;10.50;99.90
9125;DHT22;4597;48.730;9.114;2023-05-19T01:07:01;10.50;99.90
9125;DHT22;4597;48.730;9.114;2023-05-19T01:09:27;10.50;99.90
9125;DHT22;4597;48.730;9.114;2023-05-19T01:11:54;10.50;99.90
9125;DHT22;4597;48.730;9.114;2023-05-19T01:14:20;10.50;99.90
9125;DHT22;4597;48.730;9.114;2023-05-19T01:17:03;10.50;99.90
9125;DHT22;4597;48.730;9.114;2023-05-19T01:24:53;10.30;99.90
9125;DHT22;4597;48.730;9.114;2023-05-19T01:30:20;10.30;99.90
9125;DHT22;4597;48.730;9.114;2023-05-19T01:32:51;10.30;99.90
9125;DHT22;4597;48.730;9.114;2023-05-19T01:35:18;10.30;99.90
9125;DHT22;4597;48.730;9.114;2023-05-19T01:37:46;10.20;99.90
9125;DHT22;4597;48.730;9.114;2023-05-19T01:40:12;10.10;99.90
9125;DHT22;4597;48.730;9.114;2023-05-19T01:42:39;10.10;99.90
9125;DHT22;4597;48.730;9.114;2023-05-19T01:45:06;10.10;99.90
9125;DHT22;4597;48.730;9.114;2023-05-19T01:47:35;10.10;99.90
9125;DHT22;4597;48.730;9.114;2023-05-19T01:50:03;10.10;99.90
9125;DHT22;4597;48.730;9.114;2023-05-19T01:52:28;10.10;99.90
9125;DHT22;4597;48.730;9.114;2023-05-19T01:54:54;10.20;99.90
9125;DHT22;4597;48.730;9.114;2023-05-19T01:57:32;10.20;99.90
9125;DHT22;4597;48.730;9.114;2023-05-19T02:00:12;10.10;99.90
9125;DHT22;4597;48.730;9.114;2023-05-19T02:05:26;10.10;99.90
9125;DHT22;4597;48.730;9.114;2023-05-19T02:08:10;10.10;99.90
9125;DHT22;4597;48.730;9.114;2023-05-19T02:10:40;10.10;99.90
9125;DHT22;4597;48.730;9.114;2023-05-19T02:13:10;10.10;99.90
9125;DHT22;4597;48.730;9.114;2023-05-19T02:15:40;10.10;99.90
9125;DHT22;4597;48.730;9.114;2023-05-19T02:18:09;10.10;99.90
9125;DHT22;4597;48.730;9.114;2023-05-19T02:20:39;10.20;99.90
9125;DHT22;4597;48.730;9.114;2023-05-19T02:23:04;10.20;99.90
9125;DHT22;4597;48.730;9.114;2023-05-19T02:25:30;10.20;99.90
9125;DHT22;4597;48.730;9.114;2023-05-19T02:27:56;10.20;99.90
9125;DHT22;4597;48.730;9.114;2023-05-19T02:30:22;10.10;99.90
9125;DHT22;4597;48.730;9.114;2023-05-19T02:32:48;10.10;99.90
9125;DHT22;4597;48.730;9.114;2023-05-19T02:35:14;10.10;99.90
9125;DHT22;4597;48.730;9.114;2023-05-19T02:37:39;10.20;99.90
9125;DHT22;4597;48.730;9.114;2023-05-19T02:40:06;10.30;99.90
9125;DHT22;4597;48.730;9.114;2023-05-19T02:42:31;10.30;99.90
9125;DHT22;4597;48.730;9.114;2023-05-19T02:44:57;10.30;99.90
9125;DHT22;4597;48.730;9.114;2023-05-19T02:47:22;10.30;99.90
9125;DHT22;4597;48.730;9.114;2023-05-19T02:49:48;10.30;99.90
9125;DHT22;4597;48.730;9.114;2023-05-19T02:52:13;10.30;99.90
9125;DHT22;4597;48.730;9.114;2023-05-19T02:54:39;10.40;99.90
9125;DHT22;4597;48.730;9.114;2023-05-19T02:57:04;10.40;99.90
9125;DHT22;4597;48.730;9.114;2023-05-19T02:59:30;10.40;99.90
9125;DHT22;4597;48.730;9.114;2023-05-19T03:01:59;10.40;99.90
9125;DHT22;4597;48.730;9.114;2023-05-19T03:04:25;10.40;99.90
9125;DHT22;4597;48.730;9.114;2023-05-19T03:06:50;10.30;99.90
9125;DHT22;4597;48.730;9.114;2023-05-19T03:09:16;10.30;99.90
9125;DHT22;4597;48.730;9.114;2023-05-19T03:11:42;10.30;99.90
9125;DHT22;4597;48.730;9.114;2023-05-19T03:14:07;10.40;99.90
9125;DHT22;4597;48.730;9.114;2023-05-19T03:16:39;10.30;99.90
9125;DHT22;4597;48.730;9.114;2023-05-19T03:19:08;10.30;99.90
9125;DHT22;4597;48.730;9.114;2023-05-19T03:21:34;10.30;99.90
9125;DHT22;4597;48.730;9.114;2023-05-19T03:24:00;10.30;99.90
9125;DHT22;4597;48.730;9.114;2023-05-19T03:26:26;10.20;99.90
9125;DHT22;4597;48.730;9.114;2023-05-19T03:28:51;10.20;99.90
9125;DHT22;4597;48.730;9.114;2023-05-19T03:31:17;10.20;99.90
9125;DHT22;4597;48.730;9.114;2023-05-19T03:33:42;10.20;99.90
9125;DHT22;4597;48.730;9.114;2023-05-19T03:36:08;10.20;99.90
9125;DHT22;4597;48.730;9.114;2023-05-19T03:38:34;10.20;99.90
9125;DHT22;4597;48.730;9.114;2023-05-19T03:40:59;10.20;99.90
9125;DHT22;4597;48.730;9.114;2023-05-19T03:43:25;10.20;99.90
9125;DHT22;4597;48.730;9.114;2023-05-19T03:45:50;10.20;99.90
9125;DHT22;4597;48.730;9.114;2023-05-19T03:48:16;10.20;99.90
9125;DHT22;4597;48.730;9.114;2023-05-19T03:50:41;10.20;99.90
9125;DHT22;4597;48.730;9.114;2023-05-19T03:53:08;10.20;99.90
9125;DHT22;4597;48.730;9.114;2023-05-19T03:55:34;10.20;99.90
9125;DHT22;4597;48.730;9.114;2023-05-19T03:58:01;10.20;99.90
9125;DHT22;4597;48.730;9.114;2023-05-19T04:00:27;10.20;99.90
9125;DHT22;4597;48.730;9.114;2023-05-19T04:02:53;10.20;99.90
9125;DHT22;4597;48.730;9.114;2023-05-19T04:05:18;10.10;99.90
9125;DHT22;4597;48.730;9.114;2023-05-19T04:07:44;10.20;99.90
9125;DHT22;4597;48.730;9.114;2023-05-19T04:10:11;10.10;99.90
9125;DHT22;4597;48.730;9.114;2023-05-19T04:12:36;10.10;99.90
9125;DHT22;4597;48.730;9.114;2023-05-19T04:15:02;10.00;99.90
9125;DHT22;4597;48.730;9.114;2023-05-19T04:17:28;10.10;99.90
9125;DHT22;4597;48.730;9.114;2023-05-19T04:19:54;10.00;99.90
9125;DHT22;4597;48.730;9.114;2023-05-19T04:22:19;10.10;99.90
9125;DHT22;4597;48.730;9.114;2023-05-19T04:24:45;10.10;99.90
9125;DHT22;4597;48.730;9.114;2023-05-19T04:27:12;10.10;99.90
9125;DHT22;4597;48.730;9.114;2023-05-19T04:29:38;10.20;99.90
9125;DHT22;4597;48.730;9.114;2023-05-19T04:32:05;10.10;99.90
9125;DHT22;4597;48.730;9.114;2023-05-19T04:34:33;10.10;99.90
9125;DHT22;4597;48.730;9.114;2023-05-19T04:36:59;10.10;99.90
9125;DHT22;4597;48.730;9.114;2023-05-19T04:39:25;10.20;99.90
9125;DHT22;4597;48.730;9.114;2023-05-19T04:41:50;10.20;99.90
9125;DHT22;4597;48.730;9.114;2023-05-19T04:44:18;10.20;99.90
9125;DHT22;4597;48.730;9.114;2023-05-19T04:46:44;10.20;99.90
9125;DHT22;4597;48.730;9.114;2023-05-19T04:49:09;10.20;99.90
9125;DHT22;4597;48.730;9.114;2023-05-19T04:51:39;10.30;99.90
9125;DHT22;4597;48.730;9.114;2023-05-19T04:54:06;10.30;99.90
9125;DHT22;4597;48.730;9.114;2023-05-19T04:56:32;10.40;99.90
9125;DHT22;4597;48.730;9.114;2023-05-19T04:58:58;10.40;99.90
9125;DHT22;4597;48.730;9.114;2023-05-19T05:01:23;10.40;99.90
9125;DHT22;4597;48.730;9.114;2023-05-19T05:03:50;10.40;99.90
9125;DHT22;4597;48.730;9.114;2023-05-19T05:06:19;10.50;99.90
9125;DHT22;4597;48.730;9.114;2023-05-19T05:08:45;10.60;99.90
9125;DHT22;4597;48.730;9.114;2023-05-19T05:11:11;10.60;99.90
9125;DHT22;4597;48.730;9.114;2023-05-19T05:13:36;10.70;99.90
9125;DHT22;4597;48.730;9.114;2023-05-19T05:16:02;10.80;99.90
9125;DHT22;4597;48.730;9.114;2023-05-19T05:18:31;10.90;99.90
9125;DHT22;4597;48.730;9.114;2023-05-19T05:20:57;10.90;99.90
9125;DHT22;4597;48.730;9.114;2023-05-19T05:23:23;10.90;99.90
9125;DHT22;4597;48.730;9.114;2023-05-19T05:25:49;11.00;99.90
9125;DHT22;4597;48.730;9.114;2023-05-19T05:28:15;11.10;99.90
9125;DHT22;4597;48.730;9.114;2023-05-19T05:30:40;11.10;99.90
9125;DHT22;4597;48.730;9.114;2023-05-19T05:33:06;11.10;99.90
9125;DHT22;4597;48.730;9.114;2023-05-19T05:35:32;11.20;99.90
9125;DHT22;4597;48.730;9.114;2023-05-19T05:37:57;11.10;99.90
9125;DHT22;4597;48.730;9.114;2023-05-19T05:40:23;11.20;99.90
9125;DHT22;4597;48.730;9.114;2023-05-19T05:42:48;11.20;99.90
9125;DHT22;4597;48.730;9.114;2023-05-19T05:45:14;11.30;99.90
9125;DHT22;4597;48.730;9.114;2023-05-19T05:47:40;11.30;99.90
9125;DHT22;4597;48.730;9.114;2023-05-19T05:50:08;11.40;99.90
9125;DHT22;4597;48.730;9.114;2023-05-19T05:52:35;11.60;99.90
9125;DHT22;4597;48.730;9.114;2023-05-19T05:55:02;11.60;99.90
9125;DHT22;4597;48.730;9.114;2023-05-19T05:57:28;11.70;99.90
9125;DHT22;4597;48.730;9.114;2023-05-19T05:59:55;11.80;99.90
9125;DHT22;4597;48.730;9.114;2023-05-19T06:02:21;11.80;99.90
9125;DHT22;4597;48.730;9.114;2023-05-19T06:04:46;11.80;99.90
9125;DHT22;4597;48.730;9.114;2023-05-19T06:07:12;11.80;99.90
9125;DHT22;4597;48.730;9.114;2023-05-19T06:09:37;11.90;99.90
9125;DHT22;4597;48.730;9.114;2023-05-19T06:12:03;12.00;99.90
9125;DHT22;4597;48.730;9.114;2023-05-19T06:14:28;11.90;99.90
9125;DHT22;4597;48.730;9.114;2023-05-19T06:16:54;11.90;99.90
9125;DHT22;4597;48.730;9.114;2023-05-19T06:19:20;11.80;99.90
9125;DHT22;4597;48.730;9.114;2023-05-19T06:21:46;11.80;99.90
9125;DHT22;4597;48.730;9.114;2023-05-19T06:24:11;11.70;99.90
9125;DHT22;4597;48.730;9.114;2023-05-19T06:26:37;11.70;99.90
9125;DHT22;4597;48.730;9.114;2023-05-19T06:29:02;11.80;99.90
9125;DHT22;4597;48.730;9.114;2023-05-19T06:31:28;11.90;99.90
9125;DHT22;4597;48.730;9.114;2023-05-19T06:33:54;12.10;99.90
9125;DHT22;4597;48.730;9.114;2023-05-19T06:36:19;12.20;99.90
9125;DHT22;4597;48.730;9.114;2023-05-19T06:38:45;12.40;99.90
9125;DHT22;4597;48.730;9.114;2023-05-19T06:41:11;12.50;99.90
9125;DHT22;4597;48.730;9.114;2023-05-19T06:43:37;12.60;99.90
9125;DHT22;4597;48.730;9.114;2023-05-19T06:46:02;12.70;99.90
9125;DHT22;4597;48.730;9.114;2023-05-19T06:48:28;12.80;99.90
9125;DHT22;4597;48.730;9.114;2023-05-19T06:50:54;12.90;99.90
9125;DHT22;4597;48.730;9.114;2023-05-19T06:53:20;13.00;99.90
9125;DHT22;4597;48.730;9.114;2023-05-19T06:55:45;13.10;99.90
9125;DHT22;4597;48.730;9.114;2023-05-19T06:58:11;13.20;99.90
9125;DHT22;4597;48.730;9.114;2023-05-19T07:00:36;13.30;99.90
9125;DHT22;4597;48.730;9.114;2023-05-19T07:03:02;13.40;99.90
9125;DHT22;4597;48.730;9.114;2023-05-19T07:05:27;13.50;99.90
9125;DHT22;4597;48.730;9.114;2023-05-19T07:07:53;13.60;99.90
9125;DHT22;4597;48.730;9.114;2023-05-19T07:10:18;13.70;99.90
9125;DHT22;4597;48.730;9.114;2023-05-19T07:12:46;13.80;99.90
9125;DHT22;4597;48.730;9.114;2023-05-19T07:15:11;13.90;99.90
9125;DHT22;4597;48.730;9.114;2023-05-19T07:17:37;13.90;99.90
9125;DHT22;4597;48.730;9.114;2023-05-19T07:20:03;14.00;99.90
9125;DHT22;4597;48.730;9.114;2023-05-19T07:22:31;14.00;99.90
9125;DHT22;4597;48.730;9.114;2023-05-19T07:24:59;14.00;99.90
9125;DHT22;4597;48.730;9.114;2023-05-19T07:27:25;14.00;99.90
9125;DHT22;4597;48.730;9.114;2023-05-19T07:29:50;14.00;99.90
9125;DHT22;4597;48.730;9.114;2023-05-19T07:32:16;14.10;99.90
9125;DHT22;4597;48.730;9.114;2023-05-19T07:34:41;14.20;99.90
9125;DHT22;4597;48.730;9.114;2023-05-19T07:37:07;14.40;99.90
9125;DHT22;4597;48.730;9.114;2023-05-19T07:39:34;14.50;99.90
9125;DHT22;4597;48.730;9.114;2023-05-19T07:42:00;14.60;99.90
9125;DHT22;4597;48.730;9.114;2023-05-19T07:44:25;14.80;99.90
9125;DHT22;4597;48.730;9.114;2023-05-19T07:46:52;14.90;99.90
9125;DHT22;4597;48.730;9.114;2023-05-19T07:49:17;15.10;99.90
9125;DHT22;4597;48.730;9.114;2023-05-19T07:51:43;15.10;99.90
9125;DHT22;4597;48.730;9.114;2023-05-19T07:54:09;15.10;99.90
9125;DHT22;4597;48.730;9.114;2023-05-19T07:56:34;15.20;99.90
9125;DHT22;4597;48.730;9.114;2023-05-19T07:59:00;15.30;99.90
9125;DHT22;4597;48.730;9.114;2023-05-19T08:01:25;15.30;99.90
9125;DHT22;4597;48.730;9.114;2023-05-19T08:03:52;15.30;99.90
9125;DHT22;4597;48.730;9.114;2023-05-19T08:06:18;15.30;99.90
9125;DHT22;4597;48.730;9.114;2023-05-19T08:08:43;15.30;99.90
9125;DHT22;4597;48.730;9.114;2023-05-19T08:11:09;15.20;99.90
9125;DHT22;4597;48.730;9.114;2023-05-19T08:13:35;15.20;99.90
9125;DHT22;4597;48.730;9.114;2023-05-19T08:16:00;15.10;99.90
9125;DHT22;4597;48.730;9.114;2023-05-19T08:18:26;15.10;99.90
9125;DHT22;4597;48.730;9.114;2023-05-19T08:20:51;15.10;99.90
9125;DHT22;4597;48.730;9.114;2023-05-19T08:23:17;15.20;99.30
9125;DHT22;4597;48.730;9.114;2023-05-19T08:25:43;15.20;99.10
9125;DHT22;4597;48.730;9.114;2023-05-19T08:28:09;15.30;98.00
9125;DHT22;4597;48.730;9.114;2023-05-19T08:30:34;15.30;98.50
9125;DHT22;4597;48.730;9.114;2023-05-19T08:33:00;15.30;99.20
9125;DHT22;4597;48.730;9.114;2023-05-19T08:35:26;15.30;99.30
9125;DHT22;4597;48.730;9.114;2023-05-19T08:37:52;15.50;98.40
9125;DHT22;4597;48.730;9.114;2023-05-19T08:40:18;15.60;98.30
9125;DHT22;4597;48.730;9.114;2023-05-19T08:42:45;15.70;98.40
9125;DHT22;4597;48.730;9.114;2023-05-19T08:45:10;15.90;96.90
9125;DHT22;4597;48.730;9.114;2023-05-19T08:47:36;16.00;97.00
9125;DHT22;4597;48.730;9.114;2023-05-19T08:50:06;16.10;94.90
9125;DHT22;4597;48.730;9.114;2023-05-19T08:52:39;16.10;94.70
9125;DHT22;4597;48.730;9.114;2023-05-19T08:55:43;16.00;94.00
9125;DHT22;4597;48.730;9.114;2023-05-19T08:58:12;16.00;93.40
9125;DHT22;4597;48.730;9.114;2023-05-19T09:00:38;16.00;93.50
9125;DHT22;4597;48.730;9.114;2023-05-19T09:03:04;16.10;93.80
9125;DHT22;4597;48.730;9.114;2023-05-19T09:05:30;16.30;92.90
9125;DHT22;4597;48.730;9.114;2023-05-19T09:07:56;16.20;91.00
9125;DHT22;4597;48.730;9.114;2023-05-19T09:10:22;16.30;90.60
9125;DHT22;4597;48.730;9.114;2023-05-19T09:12:47;16.40;91.40
9125;DHT22;4597;48.730;9.114;2023-05-19T09:15:17;16.50;92.10
9125;DHT22;4597;48.730;9.114;2023-05-19T09:17:44;16.60;91.00
9125;DHT22;4597;48.730;9.114;2023-05-19T09:20:12;16.80;88.50
9125;DHT22;4597;48.730;9.114;2023-05-19T09:22:44;16.80;88.20
9125;DHT22;4597;48.730;9.114;2023-05-19T09:25:50;16.90;88.90
9125;DHT22;4597;48.730;9.114;2023-05-19T09:28:31;17.00;86.10
9125;DHT22;4597;48.730;9.114;2023-05-19T09:31:09;17.10;85.00
9125;DHT22;4597;48.730;9.114;2023-05-19T09:33:37;17.20;86.30
9125;DHT22;4597;48.730;9.114;2023-05-19T09:36:03;17.20;83.90
9125;DHT22;4597;48.730;9.114;2023-05-19T09:38:37;17.20;85.20
9125;DHT22;4597;48.730;9.114;2023-05-19T09:41:04;17.30;84.60
9125;DHT22;4597;48.730;9.114;2023-05-19T09:43:31;17.30;82.50
9125;DHT22;4597;48.730;9.114;2023-05-19T09:46:08;17.30;80.40
9125;DHT22;4597;48.730;9.114;2023-05-19T09:48:35;17.30;82.50
9125;DHT22;4597;48.730;9.114;2023-05-19T09:51:02;17.30;82.00
9125;DHT22;4597;48.730;9.114;2023-05-19T09:53:29;17.40;83.40
9125;DHT22;4597;48.730;9.114;2023-05-19T09:56:00;17.40;82.40
9125;DHT22;4597;48.730;9.114;2023-05-19T09:58:30;17.30;80.30
9125;DHT22;4597;48.730;9.114;2023-05-19T10:00:57;17.30;82.20
9125;DHT22;4597;48.730;9.114;2023-05-19T10:03:24;17.20;83.10
9125;DHT22;4597;48.730;9.114;2023-05-19T10:05:52;17.20;83.70
9125;DHT22;4597;48.730;9.114;2023-05-19T10:08:18;17.10;85.80
9125;DHT22;4597;48.730;9.114;2023-05-19T10:10:46;17.10;85.30
9125;DHT22;4597;48.730;9.114;2023-05-19T10:13:15;17.20;84.40
9125;DHT22;4597;48.730;9.114;2023-05-19T10:15:41;17.20;85.90
9125;DHT22;4597;48.730;9.114;2023-05-19T10:18:08;17.20;86.30
9125;DHT22;4597;48.730;9.114;2023-05-19T10:20:35;17.30;85.70
9125;DHT22;4597;48.730;9.114;2023-05-19T10:23:01;17.30;83.80
9125;DHT22;4597;48.730;9.114;2023-05-19T10:25:30;17.30;83.90
9125;DHT22;4597;48.730;9.114;2023-05-19T10:28:04;17.30;84.90
9125;DHT22;4597;48.730;9.114;2023-05-19T10:30:34;17.20;86.30
9125;DHT22;4597;48.730;9.114;2023-05-19T10:33:02;17.20;83.30
9125;DHT22;4597;48.730;9.114;2023-05-19T10:44:15;17.40;82.50
9125;DHT22;4597;48.730;9.114;2023-05-19T10:46:42;17.40;81.70
9125;DHT22;4597;48.730;9.114;2023-05-19T10:49:08;17.50;81.50
9125;DHT22;4597;48.730;9.114;2023-05-19T10:51:34;17.50;80.20
9125;DHT22;4597;48.730;9.114;2023-05-19T10:54:01;17.60;81.20
9125;DHT22;4597;48.730;9.114;2023-05-19T10:56:31;17.60;80.00
9125;DHT22;4597;48.730;9.114;2023-05-19T10:58:59;17.70;77.80
9125;DHT22;4597;48.730;9.114;2023-05-19T11:01:33;17.80;77.20
9125;DHT22;4597;48.730;9.114;2023-05-19T11:04:09;17.80;81.40
9125;DHT22;4597;48.730;9.114;2023-05-19T11:06:39;17.90;81.20
9125;DHT22;4597;48.730;9.114;2023-05-19T11:09:13;17.90;79.60
9125;DHT22;4597;48.730;9.114;2023-05-19T11:14:11;17.80;79.00
9125;DHT22;4597;48.730;9.114;2023-05-19T11:16:40;17.60;79.10
9125;DHT22;4597;48.730;9.114;2023-05-19T11:19:07;17.50;79.00
9125;DHT22;4597;48.730;9.114;2023-05-19T11:21:48;17.40;80.80
9125;DHT22;4597;48.730;9.114;2023-05-19T11:24:42;17.30;81.10
9125;DHT22;4597;48.730;9.114;2023-05-19T11:27:30;17.30;79.50
9125;DHT22;4597;48.730;9.114;2023-05-19T11:32:34;17.20;78.70
9125;DHT22;4597;48.730;9.114;2023-05-19T11:35:03;17.30;79.30
9125;DHT22;4597;48.730;9.114;2023-05-19T11:37:31;17.40;75.70
9125;DHT22;4597;48.730;9.114;2023-05-19T11:39:59;17.40;76.10
9125;DHT22;4597;48.730;9.114;2023-05-19T11:42:25;17.40;75.90
9125;DHT22;4597;48.730;9.114;2023-05-19T11:44:54;17.50;77.50
9125;DHT22;4597;48.730;9.114;2023-05-19T11:47:19;17.60;77.40
9125;DHT22;4597;48.730;9.114;2023-05-19T11:49:48;17.70;76.80
9125;DHT22;4597;48.730;9.114;2023-05-19T11:52:16;17.80;75.90
9125;DHT22;4597;48.730;9.114;2023-05-19T11:54:42;17.80;76.10
9125;DHT22;4597;48.730;9.114;2023-05-19T11:57:08;17.70;76.00
9125;DHT22;4597;48.730;9.114;2023-05-19T11:59:38;17.70;75.40
9125;DHT22;4597;48.730;9.114;2023-05-19T12:02:22;17.60;77.50
9125;DHT22;4597;48.730;9.114;2023-05-19T12:04:49;17.60;75.80
9125;DHT22;4597;48.730;9.114;2023-05-19T12:07:15;17.50;77.10
9125;DHT22;4597;48.730;9.114;2023-05-19T12:09:45;17.50;76.50
9125;DHT22;4597;48.730;9.114;2023-05-19T12:12:20;17.50;76.40
9125;DHT22;4597;48.730;9.114;2023-05-19T12:14:48;17.30;78.20
9125;DHT22;4597;48.730;9.114;2023-05-19T12:17:16;17.40;77.80
9125;DHT22;4597;48.730;9.114;2023-05-19T12:19:43;17.30;76.00
9125;DHT22;4597;48.730;9.114;2023-05-19T12:22:09;17.30;77.20
9125;DHT22;4597;48.730;9.114;2023-05-19T12:24:36;17.30;77.70
9125;DHT22;4597;48.730;9.114;2023-05-19T12:27:09;17.30;78.00
9125;DHT22;4597;48.730;9.114;2023-05-19T12:29:37;17.30;78.30
9125;DHT22;4597;48.730;9.114;2023-05-19T12:32:05;17.30;77.20
9125;DHT22;4597;48.730;9.114;2023-05-19T12:34:34;17.50;78.80
9125;DHT22;4597;48.730;9.114;2023-05-19T12:37:01;17.50;77.60
9125;DHT22;4597;48.730;9.114;2023-05-19T12:39:27;17.60;76.50
9125;DHT22;4597;48.730;9.114;2023-05-19T12:42:02;17.60;76.10
9125;DHT22;4597;48.730;9.114;2023-05-19T12:44:29;17.60;78.40
9125;DHT22;4597;48.730;9.114;2023-05-19T12:46:58;17.40;77.40
9125;DHT22;4597;48.730;9.114;2023-05-19T12:49:24;17.30;78.00
9125;DHT22;4597;48.730;9.114;2023-05-19T12:51:53;17.20;80.50
9125;DHT22;4597;48.730;9.114;2023-05-19T12:54:20;17.10;80.30
9125;DHT22;4597;48.730;9.114;2023-05-19T12:56:52;17.00;79.80
9125;DHT22;4597;48.730;9.114;2023-05-19T12:59:24;17.00;80.60
9125;DHT22;4597;48.730;9.114;2023-05-19T13:01:56;17.00;80.80
9125;DHT22;4597;48.730;9.114;2023-05-19T13:04:26;16.90;78.40
9125;DHT22;4597;48.730;9.114;2023-05-19T13:06:52;16.90;82.00
9125;DHT22;4597;48.730;9.114;2023-05-19T13:09:19;17.00;80.50
9125;DHT22;4597;48.730;9.114;2023-05-19T13:11:46;16.80;80.00
9125;DHT22;4597;48.730;9.114;2023-05-19T13:14:16;16.80;80.00
9125;DHT22;4597;48.730;9.114;2023-05-19T13:16:44;16.80;79.40
9125;DHT22;4597;48.730;9.114;2023-05-19T13:19:14;16.70;80.70
9125;DHT22;4597;48.730;9.114;2023-05-19T13:21:40;16.60;80.60
9125;DHT22;4597;48.730;9.114;2023-05-19T13:24:07;16.60;83.70
9125;DHT22;4597;48.730;9.114;2023-05-19T13:26:32;16.60;84.60
9125;DHT22;4597;48.730;9.114;2023-05-19T13:28:58;16.70;84.20
9125;DHT22;4597;48.730;9.114;2023-05-19T13:31:23;16.70;83.90
9125;DHT22;4597;48.730;9.114;2023-05-19T13:33:49;16.80;82.50
9125;DHT22;4597;48.730;9.114;2023-05-19T13:36:14;16.90;81.40
9125;DHT22;4597;48.730;9.114;2023-05-19T13:38:40;17.00;81.80
9125;DHT22;4597;48.730;9.114;2023-05-19T13:41:06;17.00;80.00
9125;DHT22;4597;48.730;9.114;2023-05-19T13:43:31;17.00;81.00
9125;DHT22;4597;48.730;9.114;2023-05-19T13:45:57;16.90;81.70
9125;DHT22;4597;48.730;9.114;2023-05-19T13:48:23;16.80;80.60
9125;DHT22;4597;48.730;9.114;2023-05-19T13:50:48;16.80;80.00
9125;DHT22;4597;48.730;9.114;2023-05-19T13:53:16;16.70;81.30
9125;DHT22;4597;48.730;9.114;2023-05-19T13:55:42;16.60;82.40
9125;DHT22;4597;48.730;9.114;2023-05-19T13:58:07;16.60;81.70
9125;DHT22;4597;48.730;9.114;2023-05-19T14:00:35;16.60;81.70
9125;DHT22;4597;48.730;9.114;2023-05-19T14:03:01;16.60;82.50
9125;DHT22;4597;48.730;9.114;2023-05-19T14:05:26;16.60;82.50
9125;DHT22;4597;48.730;9.114;2023-05-19T14:07:53;16.50;80.90
9125;DHT22;4597;48.730;9.114;2023-05-19T14:10:19;16.60;81.80
9125;DHT22;4597;48.730;9.114;2023-05-19T14:12:45;16.70;83.70
9125;DHT22;4597;48.730;9.114;2023-05-19T14:15:10;16.80;83.10
9125;DHT22;4597;48.730;9.114;2023-05-19T14:17:36;16.80;79.70
9125;DHT22;4597;48.730;9.114;2023-05-19T14:20:02;16.80;81.30
9125;DHT22;4597;48.730;9.114;2023-05-19T14:22:27;16.80;80.60
9125;DHT22;4597;48.730;9.114;2023-05-19T14:24:53;16.80;80.20
9125;DHT22;4597;48.730;9.114;2023-05-19T14:27:18;16.80;79.40
9125;DHT22;4597;48.730;9.114;2023-05-19T14:29:44;16.80;79.50
9125;DHT22;4597;48.730;9.114;2023-05-19T14:32:09;16.80;80.60
9125;DHT22;4597;48.730;9.114;2023-05-19T14:34:35;16.80;81.80
9125;DHT22;4597;48.730;9.114;2023-05-19T14:37:00;16.70;80.90
9125;DHT22;4597;48.730;9.114;2023-05-19T14:39:28;16.60;82.30
9125;DHT22;4597;48.730;9.114;2023-05-19T14:41:54;16.60;82.80
9125;DHT22;4597;48.730;9.114;2023-05-19T14:44:20;16.70;82.40
9125;DHT22;4597;48.730;9.114;2023-05-19T14:46:46;16.70;82.00
9125;DHT22;4597;48.730;9.114;2023-05-19T14:49:11;16.70;82.60
9125;DHT22;4597;48.730;9.114;2023-05-19T14:51:37;16.80;83.30
9125;DHT22;4597;48.730;9.114;2023-05-19T14:54:02;16.80;82.90
9125;DHT22;4597;48.730;9.114;2023-05-19T14:56:28;16.90;82.30
9125;DHT22;4597;48.730;9.114;2023-05-19T14:58:53;16.90;81.90
9125;DHT22;4597;48.730;9.114;2023-05-19T15:01:19;16.90;81.20
9125;DHT22;4597;48.730;9.114;2023-05-19T15:03:44;17.00;81.90
9125;DHT22;4597;48.730;9.114;2023-05-19T15:06:10;17.10;81.70
9125;DHT22;4597;48.730;9.114;2023-05-19T15:08:36;17.00;80.90
9125;DHT22;4597;48.730;9.114;2023-05-19T15:11:05;17.10;81.30
9125;DHT22;4597;48.730;9.114;2023-05-19T15:13:31;17.20;82.20
9125;DHT22;4597;48.730;9.114;2023-05-19T15:15:57;17.20;84.60
9125;DHT22;4597;48.730;9.114;2023-05-19T15:18:22;17.20;85.10
9125;DHT22;4597;48.730;9.114;2023-05-19T15:20:48;17.30;84.40
9125;DHT22;4597;48.730;9.114;2023-05-19T15:23:13;17.30;81.20
9125;DHT22;4597;48.730;9.114;2023-05-19T15:25:39;17.30;80.60
9125;DHT22;4597;48.730;9.114;2023-05-19T15:28:04;17.40;80.90
9125;DHT22;4597;48.730;9.114;2023-05-19T15:30:30;17.40;80.70
9125;DHT22;4597;48.730;9.114;2023-05-19T15:32:55;17.50;80.50
9125;DHT22;4597;48.730;9.114;2023-05-19T15:35:21;17.60;80.90
9125;DHT22;4597;48.730;9.114;2023-05-19T15:37:46;17.70;80.20
9125;DHT22;4597;48.730;9.114;2023-05-19T15:40:12;17.70;79.20
9125;DHT22;4597;48.730;9.114;2023-05-19T15:42:37;17.70;81.10
9125;DHT22;4597;48.730;9.114;2023-05-19T15:45:04;17.80;80.70
9125;DHT22;4597;48.730;9.114;2023-05-19T15:47:30;17.80;79.20
9125;DHT22;4597;48.730;9.114;2023-05-19T15:49:55;17.90;76.70
9125;DHT22;4597;48.730;9.114;2023-05-19T15:52:21;17.90;76.90
9125;DHT22;4597;48.730;9.114;2023-05-19T15:54:46;17.90;76.20
9125;DHT22;4597;48.730;9.114;2023-05-19T15:57:12;17.90;76.80
9125;DHT22;4597;48.730;9.114;2023-05-19T15:59:38;17.90;77.90
9125;DHT22;4597;48.730;9.114;2023-05-19T16:02:04;17.90;76.30
9125;DHT22;4597;48.730;9.114;2023-05-19T16:04:29;17.80;77.40
9125;DHT22;4597;48.730;9.114;2023-05-19T16:06:55;17.70;78.00
9125;DHT22;4597;48.730;9.114;2023-05-19T16:09:20;17.60;77.20
9125;DHT22;4597;48.730;9.114;2023-05-19T16:11:46;17.60;77.70
9125;DHT22;4597;48.730;9.114;2023-05-19T16:14:11;17.50;77.80
9125;DHT22;4597;48.730;9.114;2023-05-19T16:16:37;17.50;79.50
9125;DHT22;4597;48.730;9.114;2023-05-19T16:19:02;17.50;80.40
9125;DHT22;4597;48.730;9.114;2023-05-19T16:21:28;17.60;79.10
9125;DHT22;4597;48.730;9.114;2023-05-19T16:23:53;17.70;79.60
9125;DHT22;4597;48.730;9.114;2023-05-19T16:26:19;17.80;80.20